Needles, California
Current Conditions -  °F | °C
As of 3:56 PM on Monday 24 Nov 2014 (Local Time) from KEED Reporting Station
Clear Clear  
Wind Chill: 68°   Ceiling: Unl
Heat Index: 68°   Visibility: 10mi
Dew Point:   Wind: 23mph
Humidity: 9%   Direction: 10°N
Pressure: 30.29"   Gusts: 30mph
Location:  34.84°N, 114.6°W
Report Text: KEED 242356Z AUTO 01020G26KT 10SM CLR 20/M14 A3029 RMK AO2 PK WND 03028/2308 SLP244 T02001139 10222 20172 53004
Loading
Personal Weather Stations






























Interactive Weather Map New forecast layout! Learn more

10-Day Weather Forecast

Advertisements
Track Severe Weather on mobile